Messwerte Sacramento

Temperatur

Temperatur
°C
1623895200 19.00 19.00 35
1623898800 20.00 20.00 34
1623902400 21.00 21.00 33
1623906000 22.00 22.00 27
1623909600 23.00 23.00 21
1623913200 0.00 0.00 23
1623916800 1.00 1.00
1623920400 2.00 2.00
1623924000 3.00 3.00 19
1623927600 4.00 4.00 16
1623931200 5.00 5.00
1623934800 6.00 6.00 15
1623938400 7.00 7.00 18
1623942000 8.00 8.00 24
1623945600 9.00 9.00 27
1623949200 10.00 10.00 30
1623952800 11.00 11.00 32
1623956400 12.00 12.00 34
1623960000 13.00 13.00 36
1623963600 14.00 14.00 38
1623967200 15.00 15.00 40
1623970800 16.00 16.00 40
1623974400 17.00 17.00 41
1623978000 18.00 18.00 41

Aktuellste Messwerte

Wettercharakter
Wetter: klar
Temperatur
41 °C
Feuchtigkeit
10 %
Wind
15 km/hWindrichtung: West
Luftdruck
1004 hPa
Messzeit: 17. Juni 2021, 19.00Datenquelle: METAR

Weitere Messstationen in der Nähe

Messstation Temperatur Entfernung
Sacramento 40 °C 18 km
Sacramento 40 °C 18 km
Auburn 38 °C 48 km
Vacaville 39 °C 60 km
Fairfield 39 °C 65 km
Marysville 42 °C 65 km
Marysville 40 °C 67 km

Wind

Windrichtung Böen Mittelwind
° km/h km/h
1623895200 19.00 18.00 - 19.00 340° 10
1623898800 20.00 19.00 - 20.00 340° 10
1623902400 21.00 20.00 - 21.00 310° 5
1623906000 22.00 21.00 - 22.00 0
1623909600 23.00 22.00 - 23.00 0
1623913200 0.00 23.00 - 0.00 140° 5
1623916800 1.00 0.00 - 1.00
1623920400 2.00 1.00 - 2.00
1623924000 3.00 2.00 - 3.00 0
1623927600 4.00 3.00 - 4.00 0
1623931200 5.00 4.00 - 5.00
1623934800 6.00 5.00 - 6.00 0
1623938400 7.00 6.00 - 7.00 0
1623942000 8.00 7.00 - 8.00 5
1623945600 9.00 8.00 - 9.00 340° 10
1623949200 10.00 9.00 - 10.00 10
1623952800 11.00 10.00 - 11.00 330° 10
1623956400 12.00 11.00 - 12.00 270° 10
1623960000 13.00 12.00 - 13.00 240° 20 10
1623963600 14.00 13.00 - 14.00 290° 25 10
1623967200 15.00 14.00 - 15.00 300° 25 20
1623970800 16.00 15.00 - 16.00 320° 20
1623974400 17.00 16.00 - 17.00 280° 20
1623978000 18.00 17.00 - 18.00 280° 20

Ihre Wetterstation

Fehlt Ihre Wetterstation auf unserem Portal?

Schreiben Sie an network@meteonews.ch

Klima

Wann ist es am wärmsten? Wann regnet es am wenigsten? Unsere Klimadaten geben Auskunft.